Time;durP1;ratioP1;P1;durP2;ratioP2;P2;SDS_P1;SDS_P2;PMS_P1;PMS_P2;Temp;Humidity;BMP_temperature;BMP_pressure;BME280_temperature;BME280_humidity;BME280_pressure;Samples;Min_cycle;Max_cycle;Signal;HPM_P1;HPM_P2
2023/01/04 00:01:45;;;;;;;7.13;3.30;;;;;;;14.81;76.35;101760.75;5091280;28;20058;-66
2023/01/04 00:04:10;;;;;;;4.60;2.97;;;;;;;14.51;75.04;101745.31;5110994;28;20081;-66
2023/01/04 00:06:36;;;;;;;12.67;4.23;;;;;;;14.89;77.78;101745.72;5111115;28;20039;-66
2023/01/04 00:09:01;;;;;;;9.93;4.30;;;;;;;15.08;74.43;101733.19;5092299;28;20031;-66
2023/01/04 00:11:27;;;;;;;6.30;3.47;;;;;;;14.95;72.25;101726.34;5104062;27;20019;-66
2023/01/04 00:13:56;;;;;;;9.97;3.77;;;;;;;14.73;75.49;101727.53;5114355;27;20106;-67
2023/01/04 00:16:24;;;;;;;7.87;3.47;;;;;;;14.72;76.44;101704.72;5110779;27;20069;-66
2023/01/04 00:18:51;;;;;;;4.57;2.90;;;;;;;14.48;79.60;101718.16;5092149;28;20027;-66
2023/01/04 00:21:20;;;;;;;4.83;2.97;;;;;;;14.81;78.31;101718.66;5092154;28;20030;-66
2023/01/04 00:23:48;;;;;;;5.90;3.50;;;;;;;14.82;75.51;101709.88;5093622;28;20050;-66
2023/01/04 00:26:17;;;;;;;8.20;3.93;;;;;;;15.33;72.60;101712.63;5103264;27;20027;-66
2023/01/04 00:28:43;;;;;;;5.43;3.30;;;;;;;14.84;74.94;101708.09;5113343;27;20027;-65
2023/01/04 00:31:11;;;;;;;8.77;3.33;;;;;;;14.66;80.04;101704.81;5093754;28;20104;-66
2023/01/04 00:33:37;;;;;;;4.23;3.20;;;;;;;13.90;84.39;101702.13;5101847;27;20130;-66
2023/01/04 00:36:04;;;;;;;4.47;3.17;;;;;;;15.36;75.99;101703.78;5095903;28;20546;-66
2023/01/04 00:38:31;;;;;;;4.40;2.97;;;;;;;14.93;75.79;101697.41;5110782;28;20034;-66
2023/01/04 00:40:56;;;;;;;7.50;3.67;;;;;;;14.83;77.77;101694.06;5098511;27;20015;-66
2023/01/04 00:43:22;;;;;;;5.30;3.27;;;;;;;15.61;72.02;101685.81;5093965;28;20543;-66
2023/01/04 00:45:47;;;;;;;4.67;3.50;;;;;;;15.65;72.21;101662.91;5092028;28;20020;-66
2023/01/04 00:48:12;;;;;;;8.53;4.00;;;;;;;15.58;71.95;101670.06;5111363;28;20031;-66
2023/01/04 00:50:38;;;;;;;9.87;3.57;;;;;;;14.86;77.05;101675.56;5110250;28;20028;-66
2023/01/04 00:53:03;;;;;;;4.10;3.73;;;;;;;15.55;75.28;101664.84;5093272;28;20055;-66
2023/01/04 00:55:29;;;;;;;5.47;3.63;;;;;;;15.40;73.78;101656.31;5114141;27;20029;-66
2023/01/04 00:57:54;;;;;;;6.27;3.70;;;;;;;14.73;78.63;101658.25;5106220;28;20023;-66
2023/01/04 01:00:20;;;;;;;7.10;3.40;;;;;;;14.99;78.60;101663.13;5102122;28;20387;-67
2023/01/04 01:02:45;;;;;;;4.57;3.77;;;;;;;15.97;68.53;101651.78;5109674;28;20451;-66
2023/01/04 01:05:10;;;;;;;12.00;4.10;;;;;;;15.28;76.42;101646.00;5092363;28;20403;-66
2023/01/04 01:07:36;;;;;;;3.97;3.23;;;;;;;14.87;78.82;101644.88;5092785;28;20023;-66
2023/01/04 01:10:01;;;;;;;4.63;3.93;;;;;;;14.84;79.76;101644.94;5109564;28;20024;-67
2023/01/04 01:12:27;;;;;;;3.70;3.33;;;;;;;15.30;76.15;101638.91;5101561;28;20031;-66
2023/01/04 01:14:52;;;;;;;5.83;3.73;;;;;;;15.92;72.33;101638.72;5118894;27;20058;-66
2023/01/04 01:17:17;;;;;;;6.27;3.73;;;;;;;15.19;77.49;101630.34;5090667;28;20027;-67
2023/01/04 01:19:43;;;;;;;5.23;3.50;;;;;;;15.81;72.22;101624.00;5092060;28;20156;-66
2023/01/04 01:22:08;;;;;;;6.80;3.60;;;;;;;15.94;72.29;101636.03;5109816;28;20076;-66
2023/01/04 01:24:33;;;;;;;7.80;3.90;;;;;;;15.76;74.52;101631.97;5093847;28;20471;-66
2023/01/04 01:26:59;;;;;;;5.27;3.90;;;;;;;16.19;71.58;101625.00;5108051;27;20035;-66
2023/01/04 01:29:24;;;;;;;6.37;3.60;;;;;;;15.32;74.53;101626.59;5092108;28;20020;-66
2023/01/04 01:31:50;;;;;;;6.60;4.50;;;;;;;15.24;79.39;101633.75;5106582;28;20474;-66
2023/01/04 01:34:15;;;;;;;5.67;4.53;;;;;;;15.20;81.68;101626.81;5098281;27;20069;-66
2023/01/04 01:36:42;;;;;;;7.30;4.60;;;;;;;15.40;80.18;101635.25;5112620;27;20099;-66
2023/01/04 01:39:07;;;;;;;6.77;5.57;;;;;;;15.87;76.33;101640.56;5110339;27;20483;-66
2023/01/04 01:41:34;;;;;;;7.53;5.63;;;;;;;16.50;72.51;101634.88;5091139;28;20023;-67
2023/01/04 01:44:40;;;;;;;8.77;5.60;;;;;;;16.33;70.70;101622.91;5097975;27;20019;-66
2023/01/04 01:47:13;;;;;;;6.57;5.73;;;;;;;15.57;79.36;101615.63;5110406;27;20042;-66
2023/01/04 01:49:41;;;;;;;9.40;5.77;;;;;;;15.10;79.32;101616.44;5072175;28;20024;-66
2023/01/04 01:52:20;;;;;;;9.57;5.50;;;;;;;15.61;79.08;101622.59;5071907;28;20028;-66
2023/01/04 01:54:51;;;;;;;6.87;5.77;;;;;;;15.45;77.16;101629.88;5110328;27;20035;-66
2023/01/04 01:57:21;;;;;;;9.63;5.00;;;;;;;15.59;81.01;101605.91;5110486;28;20062;-66
2023/01/04 01:59:49;;;;;;;8.77;5.67;;;;;;;16.05;75.26;101617.38;5110054;28;20478;-67
2023/01/04 02:02:14;;;;;;;6.10;5.13;;;;;;;15.75;78.87;101599.44;5091803;28;20043;-67
2023/01/04 02:04:45;;;;;;;8.00;5.87;;;;;;;16.62;72.38;101613.50;5109427;28;20498;-67
2023/01/04 02:07:16;;;;;;;7.00;5.30;;;;;;;15.73;75.79;101611.81;5088721;28;20408;-67
2023/01/04 02:09:43;;;;;;;6.90;5.43;;;;;;;16.53;72.62;101613.72;5092327;28;20530;-67
2023/01/04 02:12:12;;;;;;;9.70;4.93;;;;;;;16.03;76.11;101611.25;5092877;28;20027;-66
2023/01/04 02:14:41;;;;;;;7.50;4.57;;;;;;;15.94;75.68;101599.13;5094378;28;20035;-67
2023/01/04 02:17:28;;;;;;;9.83;4.50;;;;;;;16.23;77.40;101629.31;5113829;28;20067;-67
2023/01/04 02:20:03;;;;;;;9.83;4.87;;;;;;;15.93;76.35;101619.34;5113183;28;20403;-67
2023/01/04 02:22:58;;;;;;;12.80;4.57;;;;;;;15.63;79.82;101599.69;5113744;28;20386;-67
2023/01/04 02:25:42;;;;;;;5.57;3.87;;;;;;;15.67;80.96;101611.06;5111828;27;20389;-67
2023/01/04 02:28:20;;;;;;;9.93;4.20;;;;;;;16.37;75.56;101613.19;5095795;28;20124;-67
2023/01/04 02:30:57;;;;;;;5.77;3.83;;;;;;;16.27;73.53;101601.97;5114736;28;20051;-67
2023/01/04 02:33:38;;;;;;;7.47;4.30;;;;;;;16.97;69.46;101598.63;5106516;28;20038;-67
2023/01/04 02:36:16;;;;;;;6.73;4.50;;;;;;;16.95;75.09;101596.03;5110496;28;20028;-66
2023/01/04 02:39:09;;;;;;;4.40;4.00;;;;;;;16.66;73.88;101604.59;5100761;27;20038;-67
2023/01/04 02:41:41;;;;;;;4.67;3.77;;;;;;;16.83;72.95;101608.63;5107928;27;20076;-66
2023/01/04 02:47:16;;;;;;;9.67;4.53;;;;;;;16.95;69.82;101606.59;5112692;28;20092;-67
2023/01/04 02:52:26;;;;;;;5.40;3.77;;;;;;;16.26;76.52;101595.81;5125938;27;20157;-67
2023/01/04 02:54:56;;;;;;;4.00;3.30;;;;;;;16.42;75.25;101596.34;5121757;27;20039;-66
2023/01/04 02:57:27;;;;;;;4.33;3.57;;;;;;;16.87;71.89;101568.03;5133804;27;20031;-67
2023/01/04 03:00:09;;;;;;;6.53;3.60;;;;;;;16.09;77.81;101593.53;5108676;27;20046;-67
2023/01/04 03:08:46;;;;;;;7.23;3.50;;;;;;;16.62;73.51;101571.25;5126888;27;20409;-67
2023/01/04 03:14:15;;;;;;;4.67;3.60;;;;;;;16.25;74.30;101554.53;5119279;27;20063;-66
2023/01/04 03:16:43;;;;;;;;;;;;;;;15.64;87.08;101539.97;5094707;28;20024;-67
2023/01/04 03:19:10;;;;;;;6.90;4.13;;;;;;;15.71;82.82;101546.84;5093850;28;19911;-66
2023/01/04 03:21:40;;;;;;;4.97;4.23;;;;;;;16.36;76.69;101533.19;5115793;27;20164;-67
2023/01/04 03:35:21;;;;;;;6.80;4.90;;;;;;;16.34;75.21;101545.53;5106040;28;20058;-67
2023/01/04 03:35:55;;;;;;;6.03;4.60;;;;;;;16.58;73.25;101553.75;5109477;28;20520;-67
2023/01/04 03:50:05;;;;;;;6.37;3.97;;;;;;;16.36;78.77;101517.34;5111791;28;20051;-67
2023/01/04 03:52:32;;;;;;;6.83;3.97;;;;;;;16.40;78.47;101524.28;5093755;28;20155;-67
2023/01/04 03:55:00;;;;;;;10.17;4.77;;;;;;;17.03;71.04;101532.44;5114501;27;20031;-68
2023/01/04 03:57:26;;;;;;;7.93;4.77;;;;;;;17.03;72.41;101511.31;5099093;28;20096;-67
2023/01/04 04:00:01;;;;;;;5.17;4.50;;;;;;;16.35;74.91;101515.63;5090513;28;20036;-67
2023/01/04 04:02:31;;;;;;;6.53;4.50;;;;;;;17.44;70.95;101509.31;5093144;28;20359;-67
2023/01/04 04:10:25;;;;;;;7.20;4.30;;;;;;;17.13;71.83;101504.91;5120233;27;20414;-67
2023/01/04 04:12:51;;;;;;;5.10;4.00;;;;;;;15.97;78.00;101508.56;5095517;28;20027;-67
2023/01/04 04:15:16;;;;;;;4.20;3.90;;;;;;;16.93;72.81;101507.19;5091781;28;20016;-68
2023/01/04 04:17:42;;;;;;;6.57;3.77;;;;;;;16.95;73.55;101500.09;5112370;28;20340;-67
2023/01/04 04:20:08;;;;;;;8.57;3.50;;;;;;;16.48;74.21;101504.78;5093009;28;20027;-68
2023/01/04 04:22:33;;;;;;;4.83;3.50;;;;;;;17.42;71.14;101483.84;5092699;27;20336;-67
2023/01/04 04:24:58;;;;;;;7.23;3.60;;;;;;;15.83;79.29;101498.31;5107580;28;20076;-67
2023/01/04 04:27:24;;;;;;;5.57;3.93;;;;;;;17.72;66.94;101486.53;5108500;27;20342;-67
2023/01/04 04:29:49;;;;;;;6.50;3.57;;;;;;;17.10;69.80;101483.84;5131607;27;20027;-67
2023/01/04 04:32:15;;;;;;;5.07;4.17;;;;;;;16.28;79.15;101482.38;5132284;27;20031;-67
2023/01/04 04:34:40;;;;;;;7.93;3.60;;;;;;;16.83;77.21;101485.41;5109973;28;20023;-67
2023/01/04 04:37:05;;;;;;;6.43;3.77;;;;;;;16.79;76.54;101479.34;5090270;28;20027;-67
2023/01/04 04:39:31;;;;;;;5.00;3.90;;;;;;;16.81;77.30;101481.94;5087748;28;20043;-67
2023/01/04 04:41:56;;;;;;;7.77;4.20;;;;;;;17.53;73.13;101486.19;5118402;27;20035;-67
2023/01/04 04:44:22;;;;;;;6.67;4.17;;;;;;;17.34;71.20;101485.84;5093157;28;20035;-67
2023/01/04 04:46:48;;;;;;;9.00;4.37;;;;;;;16.99;75.22;101477.97;5089914;28;20035;-67
2023/01/04 04:49:15;;;;;;;4.60;4.20;;;;;;;16.68;74.92;101497.22;5103314;27;20125;-67
2023/01/04 04:51:42;;;;;;;7.10;4.73;;;;;;;17.42;74.28;101479.44;5073055;28;20414;-67
2023/01/04 04:54:09;;;;;;;5.80;4.37;;;;;;;17.65;70.36;101469.97;5091271;28;20118;-67
2023/01/04 04:56:35;;;;;;;6.40;4.03;;;;;;;17.75;70.73;101470.56;5116233;27;20108;-67
2023/01/04 04:59:02;;;;;;;5.20;3.47;;;;;;;17.31;75.67;101470.97;5110228;28;20100;-67
2023/01/04 05:01:27;;;;;;;4.13;3.53;;;;;;;16.82;76.02;101478.41;5109041;28;20047;-67
2023/01/04 05:03:53;;;;;;;3.50;3.20;;;;;;;16.68;78.30;101481.41;5110819;28;20387;-67
2023/01/04 05:06:18;;;;;;;3.77;3.17;;;;;;;17.34;72.39;101467.34;5097894;27;20387;-67
2023/01/04 05:08:44;;;;;;;3.50;3.20;;;;;;;17.29;71.35;101451.63;5113370;27;20474;-67
2023/01/04 05:11:11;;;;;;;3.53;3.23;;;;;;;17.26;73.45;101451.72;5101136;28;20035;-67
2023/01/04 05:13:36;;;;;;;3.60;3.30;;;;;;;17.01;75.59;101457.69;5092606;28;20051;-67
2023/01/04 05:16:04;;;;;;;5.60;4.23;;;;;;;17.22;75.77;101455.38;5111161;28;20047;-66
2023/01/04 05:18:29;;;;;;;6.67;3.57;;;;;;;17.88;70.44;101439.34;5110097;28;20019;-67
2023/01/04 05:20:55;;;;;;;3.80;3.47;;;;;;;17.32;71.50;101435.69;5110360;28;20515;-66
2023/01/04 05:23:21;;;;;;;5.43;3.50;;;;;;;17.86;70.81;101430.56;5109480;28;20039;-66
2023/01/04 05:25:56;;;;;;;3.60;3.30;;;;;;;16.65;80.10;101439.25;5089014;28;20032;-67
2023/01/04 05:28:22;;;;;;;3.57;3.27;;;;;;;17.98;71.50;101419.66;5099204;27;20023;-67
2023/01/04 05:30:52;;;;;;;5.27;3.47;;;;;;;18.00;69.15;101428.41;5102465;28;20018;-67
2023/01/04 05:33:29;;;;;;;5.23;3.67;;;;;;;17.54;73.21;101429.78;5084236;28;20019;-67
2023/01/04 05:35:57;;;;;;;4.30;3.50;;;;;;;17.89;70.28;101417.28;5098139;28;20020;-67
2023/01/04 05:38:23;;;;;;;3.87;3.30;;;;;;;17.64;74.71;101420.69;5090304;28;20406;-67
2023/01/04 05:40:49;;;;;;;3.87;3.10;;;;;;;17.08;74.32;101395.88;5091501;28;20024;-67
2023/01/04 05:43:15;;;;;;;5.23;3.53;;;;;;;17.14;76.40;101394.81;5092370;28;20028;-67
2023/01/04 05:45:49;;;;;;;4.30;3.80;;;;;;;17.04;77.97;101404.78;5105507;27;20513;-67
2023/01/04 05:48:15;;;;;;;2.90;2.60;;;;;;;16.95;77.90;101389.19;5130809;27;20023;-67
2023/01/04 05:50:40;;;;;;;3.30;3.07;;;;;;;16.89;77.52;101399.94;5110686;27;20034;-67
2023/01/04 05:53:06;;;;;;;4.77;3.53;;;;;;;17.41;75.90;101387.88;5109246;28;20100;-67
2023/01/04 05:55:32;;;;;;;5.40;3.37;;;;;;;17.11;76.47;101401.06;5108209;28;20081;-67
2023/01/04 05:57:58;;;;;;;8.33;3.63;;;;;;;17.71;73.01;101400.19;5091525;28;20438;-67
2023/01/04 06:00:23;;;;;;;6.27;4.13;;;;;;;17.39;74.10;101394.09;5114280;28;20029;-68
2023/01/04 06:02:51;;;;;;;6.07;3.83;;;;;;;17.43;73.01;101417.78;5101727;28;20027;-67
2023/01/04 06:05:17;;;;;;;4.23;3.83;;;;;;;17.84;72.99;101424.50;5088513;28;20027;-67
2023/01/04 06:07:42;;;;;;;4.90;4.40;;;;;;;17.51;76.28;101419.31;5115468;28;20058;-68
2023/01/04 06:10:09;;;;;;;6.70;3.97;;;;;;;16.87;80.68;101414.91;5112673;28;20023;-67
2023/01/04 06:12:35;;;;;;;7.13;4.73;;;;;;;17.84;74.20;101419.19;5111955;28;20075;-67
2023/01/04 06:15:01;;;;;;;6.23;4.07;;;;;;;17.51;75.95;101420.16;5102262;28;20554;-67
2023/01/04 06:17:26;;;;;;;5.17;3.70;;;;;;;17.55;72.80;101410.38;5089151;28;20024;-67
2023/01/04 06:19:51;;;;;;;6.57;3.87;;;;;;;17.20;76.20;101420.19;5109201;28;20164;-67
2023/01/04 06:22:17;;;;;;;7.17;3.80;;;;;;;17.32;76.91;101418.97;5114787;28;20109;-67
2023/01/04 06:24:43;;;;;;;9.40;3.93;;;;;;;18.16;69.86;101422.63;5112464;28;20016;-67
2023/01/04 06:27:08;;;;;;;6.90;3.53;;;;;;;17.59;73.48;101414.66;5109199;28;20381;-68
2023/01/04 06:29:33;;;;;;;4.53;3.07;;;;;;;17.80;69.39;101406.09;5120897;28;20117;-66
2023/01/04 06:31:59;;;;;;;4.33;3.53;;;;;;;17.48;75.65;101412.34;5092537;28;20199;-66
2023/01/04 06:34:24;;;;;;;10.70;4.23;;;;;;;17.98;70.15;101411.72;5091029;28;20052;-67
2023/01/04 06:36:50;;;;;;;7.13;3.70;;;;;;;17.83;71.67;101394.53;5109294;28;20634;-67
2023/01/04 06:39:15;;;;;;;5.57;3.40;;;;;;;17.90;73.19;101395.19;5101953;28;20022;-67
2023/01/04 06:41:40;;;;;;;5.23;3.23;;;;;;;16.95;75.75;101394.47;5090152;28;20122;-67
2023/01/04 06:44:06;;;;;;;6.73;3.30;;;;;;;16.97;76.13;101405.88;5109999;28;20085;-67
2023/01/04 06:46:31;;;;;;;3.87;3.40;;;;;;;17.91;70.44;101402.22;5090745;28;20568;-67
2023/01/04 06:48:57;;;;;;;5.60;3.50;;;;;;;17.75;72.59;101386.84;5107482;28;20031;-67
2023/01/04 06:51:22;;;;;;;7.53;3.50;;;;;;;18.05;70.84;101389.47;5107396;28;20031;-67
2023/01/04 06:53:48;;;;;;;8.67;3.37;;;;;;;17.94;69.04;101381.88;5100140;28;20046;-67
2023/01/04 06:56:13;;;;;;;8.77;3.60;;;;;;;18.28;69.03;101379.88;5096235;28;20115;-67
2023/01/04 06:58:39;;;;;;;8.63;3.77;;;;;;;17.79;71.18;101384.94;5092081;28;20028;-67
2023/01/04 07:01:04;;;;;;;5.13;3.10;;;;;;;17.93;70.40;101379.28;5110575;28;20101;-67
2023/01/04 07:03:30;;;;;;;6.80;3.23;;;;;;;17.52;73.76;101386.69;5093741;28;20036;-67
2023/01/04 07:05:56;;;;;;;6.23;3.10;;;;;;;17.86;71.07;101393.56;5113780;28;20039;-67
2023/01/04 07:08:21;;;;;;;8.83;3.67;;;;;;;17.87;73.03;101379.44;5113347;28;20058;-67
2023/01/04 07:10:46;;;;;;;7.73;3.03;;;;;;;17.79;73.43;101372.63;5122747;27;20088;-67
2023/01/04 07:13:12;;;;;;;8.00;3.30;;;;;;;18.18;69.97;101374.03;5108366;27;20023;-66
2023/01/04 07:15:38;;;;;;;8.17;4.03;;;;;;;18.38;67.71;101368.09;5092681;28;20024;-67
2023/01/04 07:18:03;;;;;;;5.27;3.23;;;;;;;17.77;70.18;101370.94;5110015;28;20035;-67
2023/01/04 07:20:29;;;;;;;7.73;4.30;;;;;;;18.11;71.81;101373.38;5111325;28;20490;-67
2023/01/04 07:22:54;;;;;;;8.50;4.23;;;;;;;18.72;68.06;101366.88;5095063;28;20030;-67
2023/01/04 07:25:19;;;;;;;13.00;4.50;;;;;;;17.87;69.16;101368.84;5093721;28;20027;-66
2023/01/04 07:27:50;;;;;;;14.53;4.87;;;;;;;17.61;74.21;101357.31;5095159;28;20027;-66
2023/01/04 07:30:16;;;;;;;13.33;4.47;;;;;;;17.46;73.29;101359.53;5091641;28;20027;-66
2023/01/04 07:32:41;;;;;;;14.70;4.80;;;;;;;17.87;73.95;101358.28;5097576;28;20024;-66
2023/01/04 07:35:07;;;;;;;8.97;3.70;;;;;;;17.83;70.71;101361.94;5094367;28;20034;-67
2023/01/04 07:37:33;;;;;;;7.90;3.13;;;;;;;16.69;74.87;101340.59;5093942;28;20034;-67
2023/01/04 07:39:58;;;;;;;7.73;3.20;;;;;;;17.48;76.58;101361.28;5093225;28;20433;-67
2023/01/04 07:42:24;;;;;;;6.47;2.80;;;;;;;17.79;73.10;101351.47;5091919;28;20023;-66
2023/01/04 07:44:49;;;;;;;4.80;3.00;;;;;;;17.37;77.47;101343.94;5103662;27;20091;-67
2023/01/04 07:47:14;;;;;;;6.47;2.90;;;;;;;17.90;72.17;101347.59;5124737;27;20019;-66
2023/01/04 07:49:40;;;;;;;5.33;2.80;;;;;;;18.08;72.83;101357.63;5093838;28;20125;-67
2023/01/04 07:52:05;;;;;;;3.40;2.40;;;;;;;17.86;72.99;101353.91;5092510;28;20024;-67
2023/01/04 07:54:30;;;;;;;5.70;2.20;;;;;;;17.88;74.35;101360.88;5094123;28;20180;-67
2023/01/04 07:56:56;;;;;;;6.13;2.53;;;;;;;18.13;71.44;101371.56;5126620;27;20096;-67
2023/01/04 07:59:21;;;;;;;2.73;1.80;;;;;;;17.57;73.95;101366.25;5120443;27;20027;-66
2023/01/04 08:01:47;;;;;;;2.30;2.10;;;;;;;17.19;76.92;101365.66;5091912;28;20518;-67
2023/01/04 08:04:14;;;;;;;5.23;2.20;;;;;;;17.68;75.57;101352.72;5088415;28;20023;-67
2023/01/04 08:06:41;;;;;;;6.00;2.23;;;;;;;18.08;73.73;101359.38;5093723;28;20027;-67
2023/01/04 08:09:07;;;;;;;2.83;2.30;;;;;;;17.90;71.37;101366.09;5112630;28;20023;-67
2023/01/04 08:11:33;;;;;;;4.23;2.03;;;;;;;17.90;73.58;101347.59;5098247;27;20065;-66
2023/01/04 08:13:58;;;;;;;3.87;1.73;;;;;;;18.25;71.08;101349.09;5073264;28;20024;-68
2023/01/04 08:16:33;;;;;;;3.53;2.50;;;;;;;17.51;77.89;101369.09;5102975;28;20023;-67
2023/01/04 08:19:01;;;;;;;6.07;2.20;;;;;;;18.43;72.00;101352.91;5116197;27;20030;-67
2023/01/04 08:21:31;;;;;;;2.73;2.27;;;;;;;17.64;76.00;101362.53;5092668;28;20016;-66
2023/01/04 08:23:57;;;;;;;6.07;2.30;;;;;;;18.05;73.51;101372.72;5110419;27;20023;-66
2023/01/04 08:26:22;;;;;;;3.33;2.15;;;;;;;18.29;71.69;101374.53;5101409;27;20402;-66
2023/01/04 08:28:49;;;;;;;3.60;2.10;;;;;;;18.30;74.15;101372.78;5120716;27;20031;-66
2023/01/04 08:31:18;;;;;;;2.53;2.23;;;;;;;18.06;74.39;101374.44;5109155;28;20064;-66
2023/01/04 08:33:45;;;;;;;4.70;2.13;;;;;;;18.18;76.59;101367.91;5091155;28;20027;-67
2023/01/04 08:36:16;;;;;;;7.90;2.20;;;;;;;17.03;82.06;101374.00;5093029;28;20007;-66
2023/01/04 08:38:41;;;;;;;3.10;1.90;;;;;;;17.76;77.08;101379.78;5111550;28;20037;-67
2023/01/04 08:41:07;;;;;;;4.77;2.23;;;;;;;17.67;76.86;101366.84;5095176;27;20118;-66
2023/01/04 08:43:34;;;;;;;7.60;2.20;;;;;;;17.88;78.03;101375.88;5099708;28;20080;-67
2023/01/04 08:46:01;;;;;;;7.63;2.15;;;;;;;17.91;77.63;101386.34;5090111;28;20112;-68
2023/01/04 08:48:27;;;;;;;9.60;2.50;;;;;;;18.54;75.39;101386.09;5109200;28;20479;-66
2023/01/04 08:50:52;;;;;;;7.20;2.72;;;;;;;18.72;74.68;101390.72;5110535;28;20092;-67
2023/01/04 08:53:18;;;;;;;4.85;2.33;;;;;;;17.93;75.22;101395.16;5108526;28;20712;-67
2023/01/04 08:55:51;;;;;;;7.83;2.30;;;;;;;17.82;80.80;101398.09;5109142;28;20047;-67
2023/01/04 08:58:16;;;;;;;;;;;;;;;17.79;77.65;101395.53;5112273;28;20023;-66
2023/01/04 09:00:41;;;;;;;8.13;2.70;;;;;;;17.95;76.48;101411.81;5111206;27;19998;-67
2023/01/04 09:03:07;;;;;;;9.50;2.75;;;;;;;18.35;75.86;101413.16;5110110;27;20055;-67
2023/01/04 09:05:32;;;;;;;9.02;2.45;;;;;;;18.26;75.14;101408.19;5092436;28;20020;-66
2023/01/04 09:07:59;;;;;;;5.35;2.30;;;;;;;18.22;75.88;101417.16;5094528;27;20069;-67
2023/01/04 09:10:25;;;;;;;8.50;2.33;;;;;;;17.97;79.29;101410.00;5109049;27;20023;-67
2023/01/04 09:12:50;;;;;;;7.22;3.00;;;;;;;17.83;80.07;101425.41;5110519;28;20157;-67
2023/01/04 09:15:17;;;;;;;9.13;2.17;;;;;;;18.15;77.25;101427.06;5110407;27;20058;-68
2023/01/04 09:17:42;;;;;;;8.82;2.45;;;;;;;17.55;80.94;101415.66;5108860;28;20085;-67
2023/01/04 09:20:08;;;;;;;6.45;2.83;;;;;;;18.26;80.54;101418.78;5073531;28;20031;-67
2023/01/04 09:22:33;;;;;;;6.78;2.42;;;;;;;17.75;80.09;101417.69;5087315;28;20035;-67
2023/01/04 09:24:58;;;;;;;9.35;2.83;;;;;;;18.25;78.85;101419.69;5089653;28;20038;-67
2023/01/04 09:27:24;;;;;;;10.80;2.78;;;;;;;17.92;82.55;101409.28;5108808;28;20032;-67
2023/01/04 09:29:49;;;;;;;13.55;2.40;;;;;;;17.85;82.06;101418.28;5110758;28;20036;-67
2023/01/04 09:32:15;;;;;;;8.05;2.10;;;;;;;18.62;74.73;101415.81;5100779;28;20024;-67
2023/01/04 09:34:41;;;;;;;8.77;2.10;;;;;;;17.76;80.14;101430.00;5119936;27;20039;-67
2023/01/04 09:37:06;;;;;;;11.57;2.10;;;;;;;18.13;79.73;101424.47;5092351;28;20530;-68
2023/01/04 09:39:32;;;;;;;10.60;2.55;;;;;;;18.46;75.64;101424.28;5109938;28;20720;-68
2023/01/04 09:42:01;;;;;;;8.38;2.55;;;;;;;18.25;78.90;101420.53;5105593;28;20027;-68
2023/01/04 09:44:46;;;;;;;7.28;2.53;;;;;;;18.51;73.52;101431.19;5088204;28;20073;-68
2023/01/04 09:47:19;;;;;;;11.50;3.20;;;;;;;17.37;85.23;101425.88;5093358;28;20027;-68
2023/01/04 09:49:56;;;;;;;12.10;2.80;;;;;;;17.79;79.59;101430.78;5098956;28;20104;-67
2023/01/04 09:52:26;;;;;;;17.65;2.88;;;;;;;17.94;78.97;101433.88;5107842;28;20043;-68
2023/01/04 09:55:00;;;;;;;19.23;3.17;;;;;;;18.85;76.85;101435.31;5103356;28;20034;-67
2023/01/04 09:57:31;;;;;;;10.13;2.78;;;;;;;18.17;77.14;101434.94;5103100;28;20066;-67
2023/01/04 10:00:02;;;;;;;12.18;3.35;;;;;;;18.08;79.36;101447.56;5082942;28;20036;-68
2023/01/04 10:02:40;;;;;;;8.73;2.65;;;;;;;18.01;82.61;101435.44;5106488;28;20051;-67
2023/01/04 10:05:10;;;;;;;13.00;3.08;;;;;;;17.64;81.92;101431.25;5109224;28;20106;-67
2023/01/04 10:07:35;;;;;;;10.98;3.85;;;;;;;18.44;80.58;101427.88;5110285;28;20469;-68
2023/01/04 10:10:01;;;;;;;13.48;3.00;;;;;;;17.91;78.13;101423.38;5103623;28;20543;-67
2023/01/04 10:12:47;;;;;;;10.97;2.50;;;;;;;17.50;81.10;101438.72;5089068;28;20105;-68
2023/01/04 10:15:26;;;;;;;19.40;3.80;;;;;;;17.72;82.27;101408.09;5108603;28;20111;-67
2023/01/04 10:18:03;;;;;;;9.13;2.20;;;;;;;18.29;77.97;101424.81;5090925;28;20039;-68
2023/01/04 10:20:47;;;;;;;12.45;3.35;;;;;;;17.92;78.60;101414.56;5092472;28;20081;-68
2023/01/04 10:23:41;;;;;;;12.87;2.40;;;;;;;17.96;77.47;101416.22;5116550;28;20065;-68
2023/01/04 10:26:12;;;;;;;11.03;2.27;;;;;;;18.29;77.01;101405.44;5057770;28;20122;-68
2023/01/04 10:28:48;;;;;;;10.63;2.67;;;;;;;18.65;73.88;101416.53;5101247;28;20387;-67
2023/01/04 10:31:23;;;;;;;10.33;2.60;;;;;;;17.91;78.83;101418.09;5089628;28;20035;-68
2023/01/04 10:33:57;;;;;;;10.90;2.30;;;;;;;18.40;76.41;101427.13;5092893;28;20051;-67
2023/01/04 10:36:27;;;;;;;6.88;2.30;;;;;;;19.08;69.41;101434.53;5096188;28;20470;-68
2023/01/04 10:39:17;;;;;;;8.02;2.47;;;;;;;18.03;80.67;101415.09;5114871;28;20024;-68
2023/01/04 10:41:54;;;;;;;14.27;2.05;;;;;;;17.87;82.20;101416.44;5095269;28;20043;-67
2023/01/04 10:44:22;;;;;;;8.98;2.78;;;;;;;18.06;79.05;101414.97;5092817;28;20028;-68
2023/01/04 10:47:13;;;;;;;5.28;2.00;;;;;;;18.42;78.77;101414.72;5095760;27;20039;-68
2023/01/04 10:49:48;;;;;;;10.25;2.67;;;;;;;17.89;77.92;101425.22;5113355;27;20031;-68
2023/01/04 10:52:42;;;;;;;9.60;3.47;;;;;;;18.24;77.68;101428.53;5109152;27;20070;-68
2023/01/04 10:55:17;;;;;;;8.60;3.55;;;;;;;18.56;75.71;101394.81;5086527;27;20554;-68
2023/01/04 10:57:50;;;;;;;10.03;2.90;;;;;;;17.60;80.24;101435.75;5095150;28;20104;-68
2023/01/04 11:00:23;;;;;;;6.53;2.80;;;;;;;17.72;79.01;101408.09;5095683;28;20031;-68
2023/01/04 11:02:51;;;;;;;;;;;;;;;18.37;76.97;101410.47;5091609;28;20144;-67
2023/01/04 11:05:24;;;;;;;7.32;2.67;;;;;;;18.46;76.03;101389.88;5090541;28;19959;-68
2023/01/04 11:08:25;;;;;;;;;;;;;;;18.88;73.47;101403.47;5107571;28;20030;-67
2023/01/04 11:10:56;;;;;;;11.02;2.47;;;;;;;18.60;74.20;101394.69;5026721;28;20004;-68
2023/01/04 11:13:22;;;;;;;5.93;1.80;;;;;;;18.78;76.09;101389.63;5080111;28;20572;-68
2023/01/04 11:15:48;;;;;;;7.78;2.35;;;;;;;17.97;79.49;101387.06;5089649;28;20472;-67
2023/01/04 11:18:15;;;;;;;5.30;1.50;;;;;;;17.45;80.71;101400.09;5088188;28;20036;-68
2023/01/04 11:20:40;;;;;;;11.45;1.90;;;;;;;18.66;73.84;101375.06;5090224;28;20425;-67
2023/01/04 11:23:13;;;;;;;5.78;1.38;;;;;;;18.38;75.06;101370.75;5075930;28;20119;-67
2023/01/04 11:25:41;;;;;;;;;;;;;;;18.63;73.73;101369.88;5084877;28;20403;-68
2023/01/04 11:28:15;;;;;;;7.65;1.83;;;;;;;18.31;72.31;101374.50;5086625;28;20282;-68
2023/01/04 11:31:08;;;;;;;9.63;2.00;;;;;;;18.93;72.42;101365.31;5090358;28;20039;-67
2023/01/04 11:33:55;;;;;;;7.83;2.73;;;;;;;18.65;73.91;101381.28;5061245;28;20473;-67
2023/01/04 11:36:47;;;;;;;17.10;2.00;;;;;;;18.59;74.17;101378.84;5086702;28;20016;-68
2023/01/04 11:39:24;;;;;;;5.75;1.48;;;;;;;18.70;74.18;101381.97;5090943;28;20067;-67
2023/01/04 11:41:58;;;;;;;5.85;1.30;;;;;;;18.74;73.10;101380.97;5092410;28;20077;-67
2023/01/04 11:44:24;;;;;;;5.78;1.50;;;;;;;18.18;72.24;101389.06;5086482;28;20040;-68
2023/01/04 11:47:19;;;;;;;6.50;1.63;;;;;;;18.54;74.31;101396.69;5092718;28;20074;-67
2023/01/04 11:49:45;;;;;;;12.13;1.80;;;;;;;18.73;69.71;101405.69;5090986;28;20042;-67
2023/01/04 11:52:37;;;;;;;9.65;1.48;;;;;;;18.72;68.71;101388.06;5088713;28;20039;-67
2023/01/04 11:55:25;;;;;;;13.40;2.13;;;;;;;18.84;69.20;101388.56;5088218;28;20526;-67
2023/01/04 11:58:10;;;;;;;12.73;2.80;;;;;;;18.57;66.73;101386.81;5087694;28;20377;-68
2023/01/04 12:00:35;;;;;;;7.20;1.63;;;;;;;18.70;68.77;101387.28;5084620;28;20020;-68
2023/01/04 12:03:13;;;;;;;9.75;2.13;;;;;;;19.17;66.37;101385.66;5112370;28;20050;-68
2023/01/04 12:05:38;;;;;;;13.32;1.95;;;;;;;18.96;67.22;101378.44;5110247;28;20020;-68
2023/01/04 12:08:04;;;;;;;17.05;2.60;;;;;;;18.08;69.04;101360.25;5089154;28;21046;-68
2023/01/04 12:10:29;;;;;;;20.17;2.20;;;;;;;18.74;67.03;101362.41;5104610;27;20023;-68
2023/01/04 12:12:58;;;;;;;16.10;2.47;;;;;;;18.83;67.01;101371.81;5109385;28;20142;-68
2023/01/04 12:15:38;;;;;;;11.38;2.53;;;;;;;18.07;70.83;101358.53;5124524;27;20053;-68